createdAt,value
2023-04-19T00:00:40.402Z,8.9
2023-04-19T00:01:47.010Z,8.8
2023-04-19T00:02:54.301Z,8.8
2023-04-19T00:04:01.387Z,8.8
2023-04-19T00:05:08.357Z,8.7
2023-04-19T00:06:15.448Z,8.7
2023-04-19T00:07:21.998Z,8.6
2023-04-19T00:08:29.111Z,8.6
2023-04-19T00:09:36.232Z,8.6
2023-04-19T00:10:43.261Z,8.6
2023-04-19T00:11:50.510Z,8.6
2023-04-19T00:12:57.049Z,8.6
2023-04-19T00:14:04.052Z,8.5
2023-04-19T00:15:11.246Z,8.5
2023-04-19T00:16:18.402Z,8.4
2023-04-19T00:17:25.482Z,8.5
2023-04-19T00:18:32.468Z,8.4
2023-04-19T00:19:39.165Z,8.4
2023-04-19T00:20:46.237Z,8.4
2023-04-19T00:21:53.305Z,8.4
2023-04-19T00:23:00.454Z,8.4
2023-04-19T00:24:07.071Z,8.4
2023-04-19T00:25:14.066Z,8.4
2023-04-19T00:26:21.177Z,8.4
2023-04-19T00:27:28.368Z,8.5
2023-04-19T00:28:35.459Z,8.5
2023-04-19T00:29:42.006Z,8.5
2023-04-19T00:30:49.223Z,8.5
2023-04-19T00:31:56.238Z,8.4
2023-04-19T00:33:03.484Z,8.4
2023-04-19T00:34:10.405Z,8.4
2023-04-19T00:35:17.085Z,8.4
2023-04-19T00:36:24.184Z,8.4
2023-04-19T00:37:31.260Z,8.4
2023-04-19T00:38:38.394Z,8.4
2023-04-19T00:39:45.434Z,8.4
2023-04-19T00:40:52.033Z,8.4
2023-04-19T00:41:59.205Z,8.4
2023-04-19T00:43:06.363Z,8.3
2023-04-19T00:44:13.815Z,8.3
2023-04-19T00:45:20.457Z,8.3
2023-04-19T00:46:27.225Z,8.3
2023-04-19T00:47:34.195Z,8.3
2023-04-19T00:48:41.265Z,8.3
2023-04-19T00:49:48.410Z,8.3
2023-04-19T00:50:55.529Z,8.3
2023-04-19T00:52:03.381Z,8.2
2023-04-19T00:53:09.185Z,8.3
2023-04-19T00:54:16.647Z,8.2
2023-04-19T00:55:23.379Z,8.2
2023-04-19T00:56:30.508Z,8.2
2023-04-19T00:57:37.024Z,8.1
2023-04-19T00:58:44.233Z,8.1
2023-04-19T00:59:51.233Z,8.1
2023-04-19T01:00:58.348Z,8.1
2023-04-19T01:02:05.531Z,8.1
2023-04-19T01:04:19.518Z,8.1
2023-04-19T01:05:26.303Z,8.1
2023-04-19T01:06:33.471Z,8.1
2023-04-19T01:07:39.970Z,8.1
2023-04-19T01:08:47.126Z,8.1
2023-04-19T01:09:54.207Z,8.1
2023-04-19T01:11:01.295Z,8.1
2023-04-19T01:12:08.486Z,8.1
2023-04-19T01:13:14.991Z,8.1
2023-04-19T01:14:22.102Z,8.1
2023-04-19T01:15:29.219Z,8.1
2023-04-19T01:16:36.356Z,8.1
2023-04-19T01:17:43.419Z,8.1
2023-04-19T01:18:50.085Z,8.1
2023-04-19T01:19:57.152Z,8.1
2023-04-19T01:21:04.184Z,8.1
2023-04-19T01:22:11.295Z,8.1
2023-04-19T01:23:18.468Z,8.1
2023-04-19T01:24:25.029Z,8.1
2023-04-19T01:25:32.051Z,8.1
2023-04-19T01:26:39.193Z,8.1
2023-04-19T01:27:46.330Z,8.1
2023-04-19T01:28:53.431Z,8.1
2023-04-19T01:30:00.057Z,8.1
2023-04-19T01:31:07.219Z,8.1
2023-04-19T01:32:14.270Z,8.1
2023-04-19T01:33:21.340Z,8.1
2023-04-19T01:34:28.488Z,8.1
2023-04-19T01:35:35.042Z,8.1
2023-04-19T01:36:42.091Z,8.1
2023-04-19T01:37:49.192Z,8.1
2023-04-19T01:38:56.388Z,8.1
2023-04-19T01:40:03.444Z,8
2023-04-19T01:41:10.080Z,8
2023-04-19T01:42:17.111Z,8
2023-04-19T01:43:24.273Z,8
2023-04-19T01:45:38.450Z,7.9
2023-04-19T01:46:45.120Z,7.9
2023-04-19T01:47:52.225Z,7.9
2023-04-19T01:48:59.310Z,7.9
2023-04-19T01:50:06.315Z,7.9
2023-04-19T01:51:13.467Z,7.9
2023-04-19T01:52:20.081Z,7.9
2023-04-19T01:53:27.187Z,7.9
2023-04-19T01:54:34.226Z,7.9
2023-04-19T01:55:41.338Z,7.8
2023-04-19T01:56:48.434Z,7.8
2023-04-19T01:57:55.027Z,7.8
2023-04-19T01:59:02.170Z,7.8
2023-04-19T02:00:09.235Z,7.8
2023-04-19T02:01:16.446Z,7.8
2023-04-19T02:02:23.680Z,7.8
2023-04-19T02:03:30.142Z,7.8
2023-04-19T02:04:37.117Z,7.8
2023-04-19T02:05:44.239Z,7.7
2023-04-19T02:07:58.474Z,7.8
2023-04-19T02:09:05.090Z,7.7
2023-04-19T02:10:12.177Z,7.7
2023-04-19T02:11:19.272Z,7.7
2023-04-19T02:12:26.394Z,7.6
2023-04-19T02:13:33.465Z,7.6
2023-04-19T02:14:40.050Z,7.5
2023-04-19T02:15:47.203Z,7.5
2023-04-19T02:16:54.337Z,7.6
2023-04-19T02:18:01.346Z,7.5
2023-04-19T02:19:08.495Z,7.5
2023-04-19T02:20:15.101Z,7.5
2023-04-19T02:21:22.165Z,7.5
2023-04-19T02:22:29.298Z,7.5
2023-04-19T02:23:36.401Z,7.4
2023-04-19T02:24:43.505Z,7.4
2023-04-19T02:25:50.579Z,7.4
2023-04-19T02:26:57.272Z,7.4
2023-04-19T02:28:04.241Z,7.4
2023-04-19T02:29:11.407Z,7.3
2023-04-19T02:30:18.503Z,7.3
2023-04-19T02:31:25.172Z,7.3
2023-04-19T02:32:32.193Z,7.3
2023-04-19T02:33:39.323Z,7.3
2023-04-19T02:34:46.374Z,7.3
2023-04-19T02:35:52.937Z,7.3
2023-04-19T02:37:00.130Z,7.3
2023-04-19T02:38:07.208Z,7.3
2023-04-19T02:39:14.366Z,7.3
2023-04-19T02:40:21.412Z,7.3
2023-04-19T02:41:28.031Z,7.3
2023-04-19T02:42:35.179Z,7.3
2023-04-19T02:43:42.181Z,7.2
2023-04-19T02:44:49.287Z,7.2
2023-04-19T02:45:56.443Z,7.2
2023-04-19T02:47:03.033Z,7.2
2023-04-19T02:48:10.252Z,7.2
2023-04-19T02:49:17.228Z,7.2
2023-04-19T02:50:24.407Z,7.2
2023-04-19T02:51:31.366Z,7.2
2023-04-19T02:52:37.984Z,7.2
2023-04-19T02:53:45.128Z,7.2
2023-04-19T02:54:52.156Z,7.2
2023-04-19T02:55:59.386Z,7.2
2023-04-19T02:57:06.401Z,7.2
2023-04-19T02:58:12.966Z,7.2
2023-04-19T02:59:20.206Z,7.1
2023-04-19T03:00:27.267Z,7.1
2023-04-19T03:01:34.370Z,7.1
2023-04-19T03:02:41.465Z,7.1
2023-04-19T03:03:48.201Z,7.1
2023-04-19T03:04:55.186Z,7.1
2023-04-19T03:06:02.248Z,7.1
2023-04-19T03:07:09.384Z,7.1
2023-04-19T03:08:16.429Z,7.1
2023-04-19T03:09:22.974Z,7.1
2023-04-19T03:11:37.291Z,7
2023-04-19T03:13:51.521Z,7
2023-04-19T03:14:58.095Z,7.1
2023-04-19T03:16:05.226Z,7
2023-04-19T03:17:12.238Z,7
2023-04-19T03:18:19.336Z,7
2023-04-19T03:19:26.402Z,7
2023-04-19T03:20:33.040Z,6.9
2023-04-19T03:21:40.128Z,6.9
2023-04-19T03:22:47.291Z,6.9
2023-04-19T03:23:54.410Z,6.9
2023-04-19T03:25:01.433Z,6.9
2023-04-19T03:26:08.040Z,6.8
2023-04-19T03:27:15.163Z,6.8
2023-04-19T03:28:22.252Z,6.8
2023-04-19T03:29:29.462Z,6.9
2023-04-19T03:30:36.504Z,6.9
2023-04-19T03:31:43.316Z,6.9
2023-04-19T03:32:50.210Z,6.8
2023-04-19T03:33:57.283Z,6.8
2023-04-19T03:35:04.391Z,6.8
2023-04-19T03:36:10.900Z,6.8
2023-04-19T03:37:18.080Z,6.9
2023-04-19T03:38:25.128Z,6.9
2023-04-19T03:39:32.266Z,6.8
2023-04-19T03:40:39.452Z,6.8
2023-04-19T03:41:45.982Z,6.8
2023-04-19T03:42:53.056Z,6.8
2023-04-19T03:44:00.206Z,6.8
2023-04-19T03:45:07.256Z,6.8
2023-04-19T03:46:14.476Z,6.8
2023-04-19T03:47:21.006Z,6.7
2023-04-19T03:48:28.129Z,6.7
2023-04-19T03:49:35.226Z,6.7
2023-04-19T03:50:42.231Z,6.7
2023-04-19T03:51:49.433Z,6.7
2023-04-19T03:52:56.001Z,6.7
2023-04-19T03:54:03.072Z,6.6
2023-04-19T03:55:10.225Z,6.6
2023-04-19T03:56:17.271Z,6.6
2023-04-19T03:57:24.342Z,6.6
2023-04-19T03:58:31.000Z,6.6
2023-04-19T03:59:38.059Z,6.6
2023-04-19T04:00:45.192Z,6.6
2023-04-19T04:01:52.336Z,6.6
2023-04-19T04:02:59.749Z,6.6
2023-04-19T04:04:06.219Z,6.6
2023-04-19T04:05:13.144Z,6.6
2023-04-19T04:06:20.237Z,6.6
2023-04-19T04:07:27.365Z,6.6
2023-04-19T04:08:34.382Z,6.6
2023-04-19T04:09:41.033Z,6.5
2023-04-19T04:10:48.137Z,6.5
2023-04-19T04:11:55.198Z,6.5
2023-04-19T04:13:02.263Z,6.6
2023-04-19T04:15:16.080Z,6.5
2023-04-19T04:16:23.173Z,6.5
2023-04-19T04:17:30.262Z,6.5
2023-04-19T04:18:37.355Z,6.5
2023-04-19T04:19:44.412Z,6.5
2023-04-19T04:20:50.985Z,6.5
2023-04-19T04:21:58.128Z,6.5
2023-04-19T04:23:05.447Z,6.5
2023-04-19T04:24:12.466Z,6.5
2023-04-19T04:25:21.193Z,6.5
2023-04-19T04:26:25.955Z,6.5
2023-04-19T04:27:33.145Z,6.5
2023-04-19T04:28:40.270Z,6.5
2023-04-19T04:29:47.321Z,6.5
2023-04-19T04:30:54.430Z,6.6
2023-04-19T04:32:03.390Z,6.5
2023-04-19T04:33:08.696Z,6.6
2023-04-19T04:34:15.713Z,6.5
2023-04-19T04:35:22.304Z,6.5
2023-04-19T04:36:29.433Z,6.5
2023-04-19T04:37:36.068Z,6.5
2023-04-19T04:38:43.142Z,6.5
2023-04-19T04:39:50.275Z,6.4
2023-04-19T04:42:04.457Z,6.4
2023-04-19T04:43:11.056Z,6.4
2023-04-19T04:44:18.213Z,6.4
2023-04-19T04:45:25.279Z,6.4
2023-04-19T04:46:32.372Z,6.3
2023-04-19T04:47:39.558Z,6.3
2023-04-19T04:48:46.104Z,6.3
2023-04-19T04:49:53.160Z,6.3
2023-04-19T04:51:00.301Z,6.3
2023-04-19T04:52:07.361Z,6.3
2023-04-19T04:53:14.441Z,6.3
2023-04-19T04:54:21.064Z,6.3
2023-04-19T04:55:28.246Z,6.3
2023-04-19T04:56:35.366Z,6.3
2023-04-19T04:57:42.400Z,6.3
2023-04-19T04:58:49.663Z,6.3
2023-04-19T04:59:56.173Z,6.2
2023-04-19T05:01:03.215Z,6.2
2023-04-19T05:02:10.304Z,6.2
2023-04-19T05:03:17.491Z,6.2
2023-04-19T05:04:24.498Z,6.2
2023-04-19T05:05:31.030Z,6.2
2023-04-19T05:06:38.197Z,6.3
2023-04-19T05:07:45.311Z,6.3
2023-04-19T05:08:52.439Z,6.3
2023-04-19T05:09:58.967Z,6.4
2023-04-19T05:11:06.223Z,6.4
2023-04-19T05:12:13.146Z,6.5
2023-04-19T05:13:20.361Z,6.5
2023-04-19T05:14:27.426Z,6.5
2023-04-19T05:15:33.948Z,6.5
2023-04-19T05:16:41.247Z,6.5
2023-04-19T05:18:55.397Z,6.5
2023-04-19T05:20:02.410Z,6.5
2023-04-19T05:21:08.996Z,6.5
2023-04-19T05:22:16.169Z,6.5
2023-04-19T05:23:23.245Z,6.4
2023-04-19T05:24:30.303Z,6.4
2023-04-19T05:25:37.396Z,6.4
2023-04-19T05:26:43.968Z,6.4
2023-04-19T05:27:51.098Z,6.4
2023-04-19T05:28:58.297Z,6.3
2023-04-19T05:30:05.361Z,6.3
2023-04-19T05:31:12.577Z,6.3
2023-04-19T05:32:19.080Z,6.4
2023-04-19T05:33:26.145Z,6.3
2023-04-19T05:34:33.232Z,6.3
2023-04-19T05:35:40.319Z,6.4
2023-04-19T05:36:47.432Z,6.3
2023-04-19T05:37:54.116Z,6.4
2023-04-19T05:39:01.124Z,6.4
2023-04-19T05:40:08.253Z,6.4
2023-04-19T05:41:15.367Z,6.5
2023-04-19T05:42:22.456Z,6.5
2023-04-19T05:43:29.080Z,6.6
2023-04-19T05:44:36.231Z,6.6
2023-04-19T05:45:43.280Z,6.7
2023-04-19T05:46:50.346Z,6.7
2023-04-19T05:47:57.445Z,6.7
2023-04-19T05:49:04.056Z,6.7
2023-04-19T05:50:11.156Z,6.7
2023-04-19T05:51:18.269Z,6.8
2023-04-19T05:52:25.333Z,6.8
2023-04-19T05:53:32.479Z,6.8
2023-04-19T05:54:39.174Z,6.9
2023-04-19T05:55:46.183Z,6.9
2023-04-19T05:56:53.216Z,6.8
2023-04-19T05:58:00.415Z,6.9
2023-04-19T05:59:07.634Z,6.8
2023-04-19T06:00:14.012Z,6.9
2023-04-19T06:01:21.114Z,6.9
2023-04-19T06:02:28.543Z,6.9
2023-04-19T06:03:35.593Z,6.9
2023-04-19T06:04:42.861Z,6.9
2023-04-19T06:05:49.187Z,7
2023-04-19T06:06:56.174Z,7
2023-04-19T06:08:03.568Z,7
2023-04-19T06:10:17.552Z,7.1
2023-04-19T06:11:31.325Z,7.2
2023-04-19T06:12:31.157Z,7.2
2023-04-19T06:13:38.267Z,7.2
2023-04-19T06:14:45.459Z,7.2
2023-04-19T06:15:52.579Z,7.2
2023-04-19T06:16:59.080Z,7.2
2023-04-19T06:18:06.263Z,7.2
2023-04-19T06:19:13.327Z,7.3
2023-04-19T06:20:20.410Z,7.3
2023-04-19T06:21:27.525Z,7.3
2023-04-19T06:22:34.132Z,7.3
2023-04-19T06:23:41.185Z,7.3
2023-04-19T06:24:48.333Z,7.3
2023-04-19T06:25:55.382Z,7.3
2023-04-19T06:27:02.176Z,7.4
2023-04-19T06:28:09.146Z,7.4
2023-04-19T06:29:16.257Z,7.4
2023-04-19T06:30:23.315Z,7.4
2023-04-19T06:31:30.427Z,7.4
2023-04-19T06:32:37.116Z,7.4
2023-04-19T06:33:44.094Z,7.4
2023-04-19T06:34:51.259Z,7.4
2023-04-19T06:35:58.446Z,7.4
2023-04-19T06:37:05.414Z,7.5
2023-04-19T06:38:11.961Z,7.5
2023-04-19T06:39:19.174Z,7.7
2023-04-19T06:40:26.726Z,7.9
2023-04-19T06:41:33.343Z,8
2023-04-19T06:42:40.420Z,8.2
2023-04-19T06:43:47.054Z,8.5
2023-04-19T06:44:54.117Z,8.6
2023-04-19T06:46:01.337Z,8.8
2023-04-19T06:47:08.396Z,8.9
2023-04-19T06:48:15.417Z,9.1
2023-04-19T06:49:22.159Z,9.3
2023-04-19T06:50:29.175Z,9.5
2023-04-19T06:51:36.247Z,9.7
2023-04-19T06:52:43.365Z,9.8
2023-04-19T06:53:50.487Z,10
2023-04-19T06:54:57.055Z,10
2023-04-19T06:56:04.087Z,10
2023-04-19T06:57:11.256Z,10.1
2023-04-19T06:58:18.372Z,10.2
2023-04-19T06:59:25.425Z,10.3
2023-04-19T07:00:32.054Z,10.4
2023-04-19T07:01:39.244Z,10.5
2023-04-19T07:02:46.338Z,10.6
2023-04-19T07:03:55.213Z,10.7
2023-04-19T07:05:00.609Z,10.8
2023-04-19T07:06:07.075Z,10.9
2023-04-19T07:07:14.228Z,11
2023-04-19T07:08:21.265Z,11.2
2023-04-19T07:09:28.408Z,11.2
2023-04-19T07:10:35.440Z,11.2
2023-04-19T07:11:42.233Z,11.3
2023-04-19T07:12:49.313Z,11.4
2023-04-19T07:13:56.325Z,11.4
2023-04-19T07:15:03.319Z,11.4
2023-04-19T07:16:10.538Z,11.5
2023-04-19T07:17:17.129Z,11.6
2023-04-19T07:18:24.190Z,11.6
2023-04-19T07:19:31.261Z,11.7
2023-04-19T07:20:38.318Z,11.7
2023-04-19T07:21:45.560Z,11.8
2023-04-19T07:22:52.070Z,11.8
2023-04-19T07:23:59.246Z,11.9
2023-04-19T07:25:06.340Z,12
2023-04-19T07:26:13.440Z,12
2023-04-19T07:27:20.078Z,12.2
2023-04-19T07:28:27.129Z,12.2
2023-04-19T07:29:34.244Z,12.2
2023-04-19T07:30:41.284Z,12.3
2023-04-19T07:31:48.488Z,12.4
2023-04-19T07:32:55.503Z,12.4
2023-04-19T07:34:02.079Z,12.4
2023-04-19T07:35:09.286Z,12.6
2023-04-19T07:36:16.314Z,12.7
2023-04-19T07:38:30.504Z,12.9
2023-04-19T07:39:37.107Z,13
2023-04-19T07:40:44.133Z,13
2023-04-19T07:41:51.356Z,13.1
2023-04-19T07:42:58.390Z,13.2
2023-04-19T07:44:05.526Z,13.3
2023-04-19T07:45:12.053Z,13.3
2023-04-19T07:46:19.238Z,13.4
2023-04-19T07:47:26.400Z,13.6
2023-04-19T07:48:33.515Z,13.7
2023-04-19T07:49:40.072Z,13.7
2023-04-19T07:50:47.087Z,13.8
2023-04-19T07:51:54.173Z,13.8
2023-04-19T07:53:01.339Z,13.9
2023-04-19T07:54:08.488Z,14
2023-04-19T07:55:14.994Z,14
2023-04-19T07:56:22.070Z,13.9
2023-04-19T07:57:29.279Z,14
2023-04-19T07:58:36.367Z,14.1
2023-04-19T07:59:43.482Z,14
2023-04-19T08:00:50.138Z,14
2023-04-19T08:01:57.268Z,14
2023-04-19T08:03:04.471Z,14
2023-04-19T08:04:11.525Z,14.1
2023-04-19T08:05:18.629Z,14.1
2023-04-19T08:06:24.999Z,14.2
2023-04-19T08:07:32.156Z,14.3
2023-04-19T08:08:39.253Z,14.4
2023-04-19T08:09:46.466Z,14.4
2023-04-19T08:10:53.450Z,14.4
2023-04-19T08:12:03.444Z,14.3
2023-04-19T08:13:07.169Z,14.4
2023-04-19T08:14:28.298Z,14.4
2023-04-19T08:17:08.988Z,14.6
2023-04-19T08:17:41.894Z,14.7
2023-04-19T08:18:42.125Z,14.8
2023-04-19T08:19:49.286Z,14.8
2023-04-19T08:20:56.323Z,14.8
2023-04-19T08:22:03.474Z,14.8
2023-04-19T08:23:20.608Z,14.7
2023-04-19T08:24:17.568Z,14.7
2023-04-19T08:25:24.265Z,14.7
2023-04-19T08:26:31.387Z,14.8
2023-04-19T08:27:38.530Z,14.7
2023-04-19T08:28:45.066Z,14.7
2023-04-19T08:29:52.193Z,14.7
2023-04-19T08:30:59.294Z,14.8
2023-04-19T08:32:06.437Z,14.7
2023-04-19T08:33:13.561Z,14.8
2023-04-19T08:34:20.039Z,14.9
2023-04-19T08:35:27.233Z,14.9
2023-04-19T08:36:41.149Z,15
2023-04-19T08:37:41.386Z,15.1
2023-04-19T08:38:58.092Z,15.1
2023-04-19T08:39:55.165Z,15.2
2023-04-19T08:41:02.167Z,15.2
2023-04-19T08:42:24.134Z,15.2
2023-04-19T08:43:16.393Z,15.3
2023-04-19T08:44:35.557Z,15.3
2023-04-19T08:45:30.151Z,15.4
2023-04-19T08:46:37.315Z,15.3
2023-04-19T08:47:59.004Z,15.3
2023-04-19T08:48:51.483Z,15.3
2023-04-19T08:50:09.157Z,15.3
2023-04-19T08:51:06.000Z,15.3
2023-04-19T08:52:12.135Z,15.3
2023-04-19T08:53:24.650Z,15.2
2023-04-19T08:54:26.384Z,15.2
2023-04-19T08:55:32.985Z,15.2
2023-04-19T08:56:40.147Z,15.2
2023-04-19T08:57:47.233Z,15.3
2023-04-19T08:59:07.456Z,15.3
2023-04-19T09:00:01.466Z,15.4
2023-04-19T09:01:08.296Z,15.4
2023-04-19T09:02:15.370Z,15.4
2023-04-19T09:03:22.340Z,15.5
2023-04-19T09:06:43.072Z,15.4
2023-04-19T09:07:50.234Z,15.4
2023-04-19T09:08:57.263Z,15.5
2023-04-19T09:10:04.981Z,15.4
2023-04-19T09:11:11.379Z,15.5
2023-04-19T09:12:18.346Z,15.6
2023-04-19T09:13:25.269Z,15.7
2023-04-19T09:14:32.170Z,15.7
2023-04-19T09:15:39.479Z,15.7
2023-04-19T09:16:46.393Z,15.7
2023-04-19T09:17:52.986Z,15.9
2023-04-19T09:19:15.212Z,15.9
2023-04-19T09:20:07.360Z,15.8
2023-04-19T09:21:14.345Z,15.9
2023-04-19T09:22:21.460Z,15.9
2023-04-19T09:23:28.083Z,16
2023-04-19T09:24:54.006Z,16.1
2023-04-19T09:26:49.429Z,16.1
2023-04-19T09:27:56.429Z,16.2
2023-04-19T09:29:03.029Z,16.2
2023-04-19T09:30:17.539Z,16.3
2023-04-19T09:31:38.839Z,16.4
2023-04-19T09:32:24.446Z,16.5
2023-04-19T09:33:31.470Z,16.6
2023-04-19T09:34:38.017Z,16.7
2023-04-19T09:35:45.190Z,16.8
2023-04-19T09:37:00.602Z,16.8
2023-04-19T09:38:05.833Z,16.9
2023-04-19T09:39:06.408Z,17
2023-04-19T09:40:13.083Z,16.9
2023-04-19T09:41:20.172Z,16.9
2023-04-19T09:43:57.978Z,16.9
2023-04-19T09:45:20.789Z,17
2023-04-19T09:45:48.086Z,17.1
2023-04-19T09:46:55.255Z,17
2023-04-19T09:48:02.277Z,16.9
2023-04-19T09:49:19.404Z,16.9
2023-04-19T09:50:23.770Z,16.8
2023-04-19T09:51:23.608Z,16.8
2023-04-19T09:52:30.213Z,16.8
2023-04-19T09:53:37.216Z,16.8
2023-04-19T09:54:44.437Z,16.8
2023-04-19T09:56:00.588Z,16.7
2023-04-19T09:57:00.181Z,16.7
2023-04-19T09:58:05.228Z,16.7
2023-04-19T09:59:20.208Z,16.7
2023-04-19T10:00:19.440Z,16.9
2023-04-19T10:01:25.968Z,16.9
2023-04-19T10:02:33.203Z,16.8
2023-04-19T10:03:40.354Z,16.7
2023-04-19T10:05:03.376Z,16.7
2023-04-19T10:05:54.529Z,16.8
2023-04-19T10:07:28.458Z,16.9
2023-04-19T10:08:08.287Z,16.9
2023-04-19T10:09:15.608Z,16.9
2023-04-19T10:10:27.534Z,16.8
2023-04-19T10:11:29.398Z,16.8
2023-04-19T10:12:58.532Z,16.7
2023-04-19T10:13:43.060Z,16.8
2023-04-19T10:14:50.197Z,16.8
2023-04-19T10:16:11.497Z,16.8
2023-04-19T10:17:04.452Z,16.7
2023-04-19T10:18:10.989Z,16.7
2023-04-19T10:19:18.127Z,16.6
2023-04-19T10:20:25.276Z,16.6
2023-04-19T10:21:32.316Z,16.5
2023-04-19T10:22:39.440Z,16.6
2023-04-19T10:23:46.036Z,16.6
2023-04-19T10:24:53.121Z,16.6
2023-04-19T10:26:00.227Z,16.6
2023-04-19T10:27:07.299Z,16.7
2023-04-19T10:28:14.412Z,16.7
2023-04-19T10:29:20.958Z,16.7
2023-04-19T10:30:28.148Z,16.7
2023-04-19T10:31:35.306Z,16.7
2023-04-19T10:32:42.345Z,16.7
2023-04-19T10:34:56.124Z,16.6
2023-04-19T10:37:10.277Z,16.5
2023-04-19T10:38:17.379Z,16.5
2023-04-19T10:39:23.931Z,16.4
2023-04-19T10:40:31.040Z,16.4
2023-04-19T10:41:38.222Z,16.4
2023-04-19T10:42:45.246Z,16.4
2023-04-19T10:43:52.288Z,16.4
2023-04-19T10:44:58.967Z,16.4
2023-04-19T10:46:06.098Z,16.4
2023-04-19T10:48:20.285Z,16.4
2023-04-19T10:49:27.371Z,16.4
2023-04-19T10:50:33.876Z,16.6
2023-04-19T10:51:41.047Z,16.6
2023-04-19T10:52:48.188Z,16.6
2023-04-19T10:53:55.359Z,16.6
2023-04-19T10:55:02.368Z,16.5
2023-04-19T10:56:08.956Z,16.4
2023-04-19T10:57:16.079Z,16.4
2023-04-19T10:58:23.179Z,16.4
2023-04-19T10:59:30.300Z,16.4
2023-04-19T11:00:37.369Z,16.4
2023-04-19T11:01:44.003Z,16.5
2023-04-19T11:02:51.219Z,16.4
2023-04-19T11:03:58.340Z,16.4
2023-04-19T11:05:05.290Z,16.3
2023-04-19T11:06:12.465Z,16.4
2023-04-19T11:07:19.031Z,16.4
2023-04-19T11:08:26.049Z,16.4
2023-04-19T11:09:33.110Z,16.4
2023-04-19T11:10:40.325Z,16.4
2023-04-19T11:11:47.375Z,16.4
2023-04-19T11:12:54.014Z,16.3
2023-04-19T11:14:01.029Z,16.4
2023-04-19T11:15:08.221Z,16.4
2023-04-19T11:16:16.273Z,16.3
2023-04-19T11:17:22.446Z,16.3
2023-04-19T11:18:29.105Z,16.3
2023-04-19T11:19:36.150Z,16.3
2023-04-19T11:20:43.138Z,16.4
2023-04-19T11:21:50.318Z,16.4
2023-04-19T11:22:57.451Z,16.4
2023-04-19T11:24:03.974Z,16.4
2023-04-19T11:25:11.095Z,16.4
2023-04-19T11:26:18.204Z,16.3
2023-04-19T11:27:25.340Z,16.3
2023-04-19T11:28:32.398Z,16.4
2023-04-19T11:29:39.042Z,16.4
2023-04-19T11:30:46.081Z,16.4
2023-04-19T11:31:53.196Z,16.4
2023-04-19T11:33:00.400Z,16.6
2023-04-19T11:34:07.433Z,16.6
2023-04-19T11:35:14.014Z,16.5
2023-04-19T11:36:21.092Z,16.5
2023-04-19T11:37:28.227Z,16.5
2023-04-19T11:38:35.358Z,16.4
2023-04-19T11:39:41.954Z,16.4
2023-04-19T11:40:49.062Z,16.4
2023-04-19T11:41:56.128Z,16.4
2023-04-19T11:43:03.186Z,16.5
2023-04-19T11:44:10.310Z,16.5
2023-04-19T11:45:28.701Z,16.6
2023-04-19T11:46:23.994Z,16.6
2023-04-19T11:47:31.243Z,16.6
2023-04-19T11:48:38.216Z,16.5
2023-04-19T11:49:45.295Z,16.3
2023-04-19T11:50:51.947Z,16.3
2023-04-19T11:51:59.001Z,16.3
2023-04-19T11:53:06.253Z,16.3
2023-04-19T11:54:13.251Z,16.4
2023-04-19T11:55:20.399Z,16.3
2023-04-19T11:56:26.965Z,16.4
2023-04-19T11:57:33.972Z,16.4
2023-04-19T11:58:41.695Z,16.4
2023-04-19T11:59:48.299Z,16.4
2023-04-19T12:00:55.390Z,16.5
2023-04-19T12:03:09.279Z,16.4
2023-04-19T12:04:16.471Z,16.3
2023-04-19T12:05:23.534Z,16.2
2023-04-19T12:06:30.291Z,16.1
2023-04-19T12:07:36.959Z,16
2023-04-19T12:08:44.060Z,16
2023-04-19T12:09:51.162Z,16
2023-04-19T12:10:58.342Z,16
2023-04-19T12:12:05.434Z,15.9
2023-04-19T12:13:12.002Z,15.9
2023-04-19T12:14:19.372Z,15.8
2023-04-19T12:15:28.303Z,15.8
2023-04-19T12:16:33.305Z,15.8
2023-04-19T12:17:54.574Z,15.9
2023-04-19T12:18:46.988Z,15.9
2023-04-19T12:19:54.067Z,15.9
2023-04-19T12:21:01.580Z,15.8
2023-04-19T12:22:08.317Z,15.8
2023-04-19T12:23:15.457Z,15.9
2023-04-19T12:24:21.934Z,15.9
2023-04-19T12:25:29.072Z,15.8
2023-04-19T12:26:36.242Z,15.8
2023-04-19T12:27:43.340Z,15.9
2023-04-19T12:28:50.356Z,15.9
2023-04-19T12:29:56.942Z,15.9
2023-04-19T12:31:04.097Z,16
2023-04-19T12:32:11.334Z,16
2023-04-19T12:33:18.299Z,16
2023-04-19T12:34:24.922Z,16.1
2023-04-19T12:35:31.993Z,16.1
2023-04-19T12:36:39.126Z,16
2023-04-19T12:37:46.249Z,16
2023-04-19T12:38:53.236Z,16.1
2023-04-19T12:39:59.854Z,16.1
2023-04-19T12:41:06.961Z,16
2023-04-19T12:42:14.156Z,16
2023-04-19T12:44:28.310Z,15.9
2023-04-19T12:45:35.372Z,15.9
2023-04-19T12:46:41.958Z,15.9
2023-04-19T12:47:49.112Z,15.9
2023-04-19T12:48:56.176Z,16
2023-04-19T12:50:03.340Z,16
2023-04-19T12:51:09.916Z,16
2023-04-19T12:52:16.963Z,16
2023-04-19T12:53:24.148Z,16
2023-04-19T12:54:31.215Z,16.1
2023-04-19T12:55:38.334Z,16.1
2023-04-19T12:56:44.848Z,16.1
2023-04-19T12:57:52.000Z,16.1
2023-04-19T12:58:59.151Z,16
2023-04-19T13:00:06.296Z,16
2023-04-19T13:01:13.292Z,16
2023-04-19T13:02:20.469Z,16
2023-04-19T13:03:27.212Z,16
2023-04-19T13:04:34.285Z,16
2023-04-19T13:05:41.201Z,16
2023-04-19T13:06:48.302Z,16.1
2023-04-19T13:07:54.904Z,16.1
2023-04-19T13:09:11.416Z,16.2
2023-04-19T13:10:09.112Z,16.2
2023-04-19T13:11:16.217Z,16.2
2023-04-19T13:12:23.349Z,16.1
2023-04-19T13:13:29.900Z,16
2023-04-19T13:14:37.103Z,16
2023-04-19T13:15:44.167Z,16
2023-04-19T13:16:51.172Z,16
2023-04-19T13:17:58.415Z,16
2023-04-19T13:19:04.930Z,16
2023-04-19T13:20:12.028Z,16.1
2023-04-19T13:21:19.177Z,16.1
2023-04-19T13:22:26.227Z,16.1
2023-04-19T13:23:33.404Z,16
2023-04-19T13:24:39.966Z,16
2023-04-19T13:25:47.020Z,16.1
2023-04-19T13:26:54.225Z,16.1
2023-04-19T13:28:01.279Z,16.1
2023-04-19T13:29:07.828Z,16.2
2023-04-19T13:31:22.161Z,16.1
2023-04-19T13:32:29.293Z,16.1
2023-04-19T13:33:36.274Z,16.2
2023-04-19T13:34:42.806Z,16.1
2023-04-19T13:35:49.978Z,16.2
2023-04-19T13:36:57.076Z,16.2
2023-04-19T13:38:04.188Z,16.2
2023-04-19T13:39:11.356Z,16.2
2023-04-19T13:40:19.774Z,16.1
2023-04-19T13:41:24.977Z,16.1
2023-04-19T13:42:32.066Z,16.1
2023-04-19T13:43:39.184Z,16.1
2023-04-19T13:44:46.306Z,16.1
2023-04-19T13:45:52.870Z,16.1
2023-04-19T13:47:00.177Z,16
2023-04-19T13:48:07.191Z,16
2023-04-19T13:49:14.162Z,16
2023-04-19T13:50:21.291Z,16
2023-04-19T13:51:33.166Z,16.1
2023-04-19T13:52:35.041Z,16.1
2023-04-19T13:53:42.025Z,16.1
2023-04-19T13:54:49.158Z,16.1
2023-04-19T13:55:56.248Z,16.1
2023-04-19T13:57:02.886Z,16.1
2023-04-19T13:58:10.029Z,16.1
2023-04-19T13:59:17.118Z,16.1
2023-04-19T14:00:24.180Z,16.1
2023-04-19T14:01:31.354Z,16.1
2023-04-19T14:02:38.110Z,16.1
2023-04-19T14:03:45.177Z,16.1
2023-04-19T14:04:52.084Z,16.1
2023-04-19T14:05:59.238Z,16.1
2023-04-19T14:07:06.325Z,16.1
2023-04-19T14:08:12.908Z,16.1
2023-04-19T14:09:19.986Z,16
2023-04-19T14:10:27.138Z,16.1
2023-04-19T14:11:34.191Z,16.1
2023-04-19T14:12:41.315Z,16.1
2023-04-19T14:13:47.975Z,16
2023-04-19T14:14:55.294Z,16
2023-04-19T14:16:02.175Z,16
2023-04-19T14:17:09.226Z,16.1
2023-04-19T14:18:16.339Z,16.1
2023-04-19T14:19:22.858Z,16.1
2023-04-19T14:20:30.058Z,16.1
2023-04-19T14:21:37.122Z,16.1
2023-04-19T14:22:44.252Z,16.1
2023-04-19T14:23:51.372Z,16.1
2023-04-19T14:24:57.872Z,16.1
2023-04-19T14:26:05.113Z,16.2
2023-04-19T14:27:12.304Z,16.2
2023-04-19T14:28:19.249Z,16.1
2023-04-19T14:29:25.833Z,16.1
2023-04-19T14:30:32.998Z,16.1
2023-04-19T14:31:40.148Z,16.1
2023-04-19T14:32:47.346Z,16
2023-04-19T14:33:54.184Z,16
2023-04-19T14:35:00.938Z,16
2023-04-19T14:36:07.959Z,16
2023-04-19T14:37:15.118Z,16
2023-04-19T14:38:22.157Z,15.9
2023-04-19T14:39:29.284Z,15.9
2023-04-19T14:40:35.883Z,16
2023-04-19T14:41:42.970Z,15.9
2023-04-19T14:42:50.072Z,15.9
2023-04-19T14:43:57.132Z,15.9
2023-04-19T14:45:04.318Z,15.8
2023-04-19T14:46:10.901Z,15.7
2023-04-19T14:47:17.931Z,15.7
2023-04-19T14:48:25.022Z,15.7
2023-04-19T14:49:32.151Z,15.7
2023-04-19T14:51:45.909Z,15.7
2023-04-19T14:52:52.948Z,15.8
2023-04-19T14:54:00.073Z,15.8
2023-04-19T14:55:07.206Z,15.8
2023-04-19T14:56:14.310Z,15.8
2023-04-19T14:57:20.932Z,15.8
2023-04-19T14:59:35.106Z,15.8
2023-04-19T15:00:42.160Z,15.7
2023-04-19T15:01:49.427Z,15.8
2023-04-19T15:02:55.973Z,15.7
2023-04-19T15:04:03.248Z,15.7
2023-04-19T15:05:10.387Z,15.8
2023-04-19T15:06:17.276Z,15.9
2023-04-19T15:07:24.234Z,15.9
2023-04-19T15:08:31.172Z,15.9
2023-04-19T15:09:38.565Z,15.9
2023-04-19T15:10:45.064Z,15.9
2023-04-19T15:11:52.169Z,15.9
2023-04-19T15:12:59.324Z,15.9
2023-04-19T15:14:05.918Z,15.9
2023-04-19T15:15:12.986Z,15.8
2023-04-19T15:16:20.165Z,15.8
2023-04-19T15:17:27.237Z,15.7
2023-04-19T15:18:34.306Z,15.7
2023-04-19T15:19:40.831Z,15.7
2023-04-19T15:20:47.985Z,15.7
2023-04-19T15:21:55.130Z,15.7
2023-04-19T15:23:02.144Z,15.7
2023-04-19T15:24:09.339Z,15.7
2023-04-19T15:25:15.954Z,15.6
2023-04-19T15:26:22.944Z,15.6
2023-04-19T15:27:30.245Z,15.5
2023-04-19T15:28:37.230Z,15.6
2023-04-19T15:29:43.735Z,15.6
2023-04-19T15:30:50.844Z,15.6
2023-04-19T15:31:58.076Z,15.6
2023-04-19T15:33:05.158Z,15.6
2023-04-19T15:34:12.263Z,15.6
2023-04-19T15:35:19.889Z,15.6
2023-04-19T15:36:25.889Z,15.6